Airfield :
LOGIN :

Register | Disclaimer

   EN    FR    IT 

 










Legend :    VFR   Marginal VFR   IFR   Intensive IFR   Very Intensive IFR
Visi :
Ceiling :
>= 8 km
>= 3000ft
5 to 8 km
1000 to 3000 ft
1500m to 5 km
500 to 1000 ft
800 to 1500m
200 to 500 ft
< 800m
< 200 ft
Symbols :   Thunderstorms  Fog  Heavy snow  Heavy precipitations  Wind > 20 kt
SIGMETs :     Misc.  Thunderstorms  Icing  Turbulence  Mountain Waves  Volcanic Ashes






- Airport Elevation : 1649 ft
- IATA code : HHN


EDFH - Frankfurt-Hahn Rhineland-Palatinate

CURRENT METAR :
  • 151020Z 26012KT 230V300 9999 SCT015 06/05 Q1002

EXPIRED METARs :
  • 150950Z 26014KT 9999 FEW015 SCT035 06/05 Q1002
  • 150920Z 27012KT 250V310 9999 FEW010 SCT035 06/05 Q1002
  • 150850Z 28016KT 9999 -SHRA FEW014CB SCT032 06/05 Q1001
  • 150820Z 25021G35KT 210V300 9000 -SHRA BKN013CB 08/07 Q0999
  • 150750Z 24023G37KT 210V280 9999 -SHRA BKN015CB 09/06 Q0999

TAF AMD TAF EDFH
Valid from the 15 at 06:00 until the 16 at 06:00 UTC


150601Z 1506/1606 24015G25KT 9999 SCT015
TEMPO 1506/1511 25030G45KT 3000 SHRA BKN006CB
BECMG 1514/1518 21008KT
BECMG 1602/1606 1000 -RA BCFG BKN002



MET'MAP, your aeronautical weather chart ! - Copyright ORBIFLY December 2007 - Disclaimer

ORBIFLY MET'MAP TEAM :

Programming & Development : Alexandra Zaïnal
Concept & original design : Baudouin d'Aumeries
Assistance for programming : Marc-Olivier Méhu
Technical & hardware support : Manuel Goepfert

Contact : metmap@orbifly.com




SOURCES & CREDITS :

   NOAA